Cabreuva, Brazil
Current Conditions -  °F | °C
As of 10:00 PM on Wednesday 22 Oct 2014 (Local Time) from SBKP Reporting Station
Clear Clear  
Wind Chill: 64°   Ceiling: Unl
Heat Index: 64°   Visibility: 6mi
Dew Point: 55°   Wind: 25mph
Humidity: 73%   Direction: 140°SE
Pressure: 30.12"   Gusts: NA
Location:  23.3°S, 47.14°W
Report Text: SBKP 230000Z 14022KT CAVOK 18/13 Q1020 WS R15
Loading
Personal Weather Stations






























Interactive Weather Map
Tropical Storm Tracking
New forecast layout! Learn more

10-Day Weather Forecast

Advertisements
Track Severe Weather on mobile